Portada
METAR-TAF:

METAR-TAF

Aeropuertos :

Aeropuerto Internacional de Bangui M'Poko

Bangui, República Centroafricana

latitud: 04-24N, longitud: 018-31E, altitud: 365 m

METAR: falta

Hora: 11:34 (10:34 UTC)

Pronóstico

El informe se hizo hace 11 horas y 34 minutos, a las 23:00 UTC
Pronóstico válido del 19 a las 00 UTC al 20 a las 06 UTC
Viento 3 kt con dirección variable
Visibilidad: 8000 m
Escasas nubes a una altura de 1000 ft
Evolucionando progresivamente
del 19 a las 04 UTC al 19 a las 06 UTC
Visibilidad: 4000 m
Nubes dispersas a una altura de 600 ft
neblina
A partir de las 19 a las 0900 UTC
Viento 6 kt del sur-suroeste
Visibilidad 10 km o más
Nubes dispersas a una altura de 2300 ft

TAF: FEFF 182300Z 1900/2006 VRB03KT 8000 FEW010 BECMG 1904/1906 4000 BR SCT006 FM190900 20006KT 9999 SCT023

Observaciones y pronósticos meteorológicos de más de 4000 aeropuertos (mensajes METAR y TAF).

Los puntos amarillos y rojos representan las estaciones disponibles.

Ponga el ratón en el punto deseado para ver el nombre de la estación.

Haga clic para ver las observaciones y los pronósticos meteorológicos.

Para cambiar el mapa : haga clic en los botones verdes con una cruz de color negro para hacer un zoom, en el botón verde con un guión para alejar o en las flechas verdes para mapas adyacentes.


METAR-TAF: